Terminal Aerodrome Forecast
Issued by NWS Melbourne, FL

Home | Current Version | Previous Version | Text Only | Print | Product List | Glossary On
Versions: 1 2 3 4 5 6 7 8 9 10 11 12 13 14
000
FTUS42 KMLB 181700 RRA
TAFDAB
TAF
KDAB 181742Z 1818/1918 06008KT P6SM VCSH SCT035 SCT070 SCT250
     FM182100 08009KT P6SM FEW035 FEW070 SCT250
     FM190100 00000KT P6SM FEW030 BKN250
     FM191400 05009KT P6SM SCT025 SCT150 OVC250=

USA.gov is the U.S. government's official web portal to all federal, state and local government web resources and services.